Time;durP1;ratioP1;P1;durP2;ratioP2;P2;SDS_P1;SDS_P2;PMS_P1;PMS_P2;Temp;Humidity;BMP_temperature;BMP_pressure;BME280_temperature;BME280_humidity;BME280_pressure;Samples;Min_cycle;Max_cycle;Signal;HPM_P1;HPM_P2
2021/08/06 00:00:12;;;;;;;20.02;10.40;;;;;;;22.40;70.42;100403.47;1915617;75;21092;-62
2021/08/06 00:02:43;;;;;;;17.15;9.30;;;;;;;22.39;70.42;100408.47;1915594;75;21035;-62
2021/08/06 00:05:12;;;;;;;13.98;9.80;;;;;;;22.28;70.47;100407.66;1915626;75;21035;-62
2021/08/06 00:07:41;;;;;;;11.68;8.13;;;;;;;22.22;70.63;100422.92;1915582;75;21523;-62
2021/08/06 00:10:11;;;;;;;11.28;8.58;;;;;;;22.16;70.68;100429.70;1915599;75;21035;-63
2021/08/06 00:12:40;;;;;;;17.42;9.38;;;;;;;22.09;70.63;100434.45;1915665;75;21026;-63
2021/08/06 00:15:09;;;;;;;16.02;10.30;;;;;;;22.01;71.02;100433.81;1915678;75;21105;-62
2021/08/06 00:17:38;;;;;;;12.70;9.35;;;;;;;21.89;71.71;100436.28;1915598;74;21062;-62
2021/08/06 00:20:07;;;;;;;17.98;9.95;;;;;;;21.81;72.01;100446.36;1915566;75;21067;-62
2021/08/06 00:22:36;;;;;;;17.55;10.35;;;;;;;21.78;71.71;100449.31;1915553;75;21018;-63
2021/08/06 00:25:07;;;;;;;14.80;9.28;;;;;;;21.75;71.61;100451.79;1915579;75;21066;-63
2021/08/06 00:27:36;;;;;;;13.72;9.03;;;;;;;21.72;71.80;100449.88;1915715;75;21042;-62
2021/08/06 00:30:06;;;;;;;16.90;9.25;;;;;;;21.74;71.82;100442.55;1915593;75;21124;-62
2021/08/06 00:32:35;;;;;;;12.35;8.70;;;;;;;21.77;71.74;100443.62;1915722;74;21038;-63
2021/08/06 00:35:07;;;;;;;18.15;9.08;;;;;;;21.77;71.79;100442.28;1915516;74;21166;-64
2021/08/06 00:37:36;;;;;;;17.82;9.35;;;;;;;21.76;71.77;100436.08;1915868;75;21015;-63
2021/08/06 00:40:06;;;;;;;19.15;9.63;;;;;;;21.77;72.12;100431.05;1915610;75;21082;-63
2021/08/06 00:42:37;;;;;;;16.55;9.40;;;;;;;21.81;72.00;100424.09;1915405;74;21091;-65
2021/08/06 00:45:08;;;;;;;18.55;9.40;;;;;;;21.83;71.71;100428.30;1915813;75;21030;-65
2021/08/06 00:47:37;;;;;;;17.75;9.48;;;;;;;21.84;71.62;100425.12;1915682;75;21112;-65
2021/08/06 00:50:08;;;;;;;15.58;9.38;;;;;;;21.83;71.79;100418.92;1915675;75;21165;-65
2021/08/06 00:52:40;;;;;;;18.37;10.78;;;;;;;21.82;71.77;100413.70;1915696;74;21175;-65
2021/08/06 00:55:10;;;;;;;19.05;11.68;;;;;;;21.81;71.79;100411.52;1915785;74;21010;-65
2021/08/06 00:57:41;;;;;;;21.45;10.32;;;;;;;21.81;71.88;100414.20;1915681;74;21066;-65
2021/08/06 01:00:12;;;;;;;18.42;10.03;;;;;;;21.80;71.84;100409.85;1914653;74;21497;-66
2021/08/06 01:02:47;;;;;;;19.98;11.33;;;;;;;21.80;71.81;100399.13;1915698;74;21117;-65
2021/08/06 01:05:19;;;;;;;23.40;10.32;;;;;;;21.78;71.95;100403.28;1915614;74;21497;-65
2021/08/06 01:08:09;;;;;;;20.60;10.23;;;;;;;21.76;72.01;100398.56;1915514;74;21144;-65
2021/08/06 01:11:02;;;;;;;17.42;11.75;;;;;;;21.74;72.29;100387.11;1791012;80;21560;-66
2021/08/06 01:13:44;;;;;;;14.68;11.33;;;;;;;21.71;72.70;100383.90;1897947;74;21102;-65
2021/08/06 01:16:14;;;;;;;18.02;10.63;;;;;;;21.66;72.87;100376.27;1914473;74;21179;-65
2021/08/06 01:19:04;;;;;;;17.77;10.43;;;;;;;21.64;72.98;100376.06;1915287;74;21083;-65
2021/08/06 01:21:34;;;;;;;14.95;10.63;;;;;;;21.56;73.41;100369.57;1915664;75;21046;-65
2021/08/06 01:24:06;;;;;;;20.02;10.70;;;;;;;21.48;73.70;100365.39;1915382;74;21125;-65
2021/08/06 01:26:36;;;;;;;13.72;10.23;;;;;;;21.44;73.88;100362.61;1915631;74;21497;-65
2021/08/06 01:29:07;;;;;;;23.47;11.70;;;;;;;21.38;74.42;100356.48;1915231;74;21564;-65
2021/08/06 01:31:39;;;;;;;23.45;14.85;;;;;;;21.38;74.13;100355.98;1914770;74;21583;-66
2021/08/06 01:34:19;;;;;;;17.80;11.97;;;;;;;21.39;74.04;100355.48;1915224;74;21099;-65
2021/08/06 01:36:48;;;;;;;23.15;14.05;;;;;;;21.40;73.78;100359.87;1915593;75;21465;-64
2021/08/06 01:39:20;;;;;;;19.20;11.25;;;;;;;21.38;73.77;100358.66;1915056;74;21553;-65
2021/08/06 01:41:52;;;;;;;15.00;9.40;;;;;;;21.36;73.84;100363.81;1923782;74;21065;-66
2021/08/06 01:44:39;;;;;;;15.17;11.00;;;;;;;21.32;74.22;100365.05;1926662;74;21062;-65
2021/08/06 01:47:11;;;;;;;21.55;11.20;;;;;;;21.23;74.89;100360.53;1927714;74;21042;-65
2021/08/06 01:49:59;;;;;;;19.82;11.15;;;;;;;21.12;75.04;100359.67;1928140;74;21125;-65
2021/08/06 01:52:37;;;;;;;21.27;12.05;;;;;;;21.07;75.42;100356.56;1928377;74;21180;-66
2021/08/06 01:55:10;;;;;;;17.90;10.90;;;;;;;21.08;75.56;100360.08;1897902;74;21054;-65
2021/08/06 01:57:54;;;;;;;19.35;11.57;;;;;;;21.07;75.59;100359.23;1928086;74;21137;-65
2021/08/06 02:00:28;;;;;;;19.65;12.37;;;;;;;21.05;75.73;100357.70;1927606;74;21662;-65
2021/08/06 02:02:59;;;;;;;23.22;11.53;;;;;;;21.05;75.77;100363.88;1927488;74;21173;-65
2021/08/06 02:05:29;;;;;;;18.52;11.25;;;;;;;21.04;75.69;100363.52;1928655;74;21038;-65
2021/08/06 02:08:00;;;;;;;20.92;11.78;;;;;;;21.05;76.10;100360.38;1927355;74;21537;-65
2021/08/06 02:10:31;;;;;;;22.77;11.68;;;;;;;21.02;76.19;100366.82;1928521;74;21132;-65
2021/08/06 02:13:02;;;;;;;20.97;11.55;;;;;;;21.03;76.18;100365.86;1928177;74;21082;-65
2021/08/06 02:15:31;;;;;;;18.67;12.45;;;;;;;21.04;76.14;100363.52;1928438;74;21117;-65
2021/08/06 02:18:01;;;;;;;17.23;10.95;;;;;;;21.07;75.88;100361.91;1928627;74;21477;-64
2021/08/06 02:20:36;;;;;;;21.60;12.25;;;;;;;21.09;75.58;100359.95;1920873;74;21118;-64
2021/08/06 02:23:08;;;;;;;21.77;13.45;;;;;;;21.11;75.37;100366.00;1928547;74;21034;-64
2021/08/06 02:25:39;;;;;;;20.70;12.82;;;;;;;21.09;76.14;100373.83;1928124;74;21098;-65
2021/08/06 02:28:09;;;;;;;17.75;11.25;;;;;;;21.05;76.04;100375.93;1928522;74;21065;-64
2021/08/06 02:30:41;;;;;;;19.52;12.05;;;;;;;21.05;76.17;100370.58;1927975;74;21521;-64
2021/08/06 02:33:10;;;;;;;23.60;12.80;;;;;;;21.06;75.95;100366.90;1928626;74;21493;-64
2021/08/06 02:35:39;;;;;;;21.50;13.10;;;;;;;21.09;75.82;100369.81;1928511;74;21063;-64
2021/08/06 02:38:08;;;;;;;27.13;13.95;;;;;;;21.14;75.61;100373.77;1928347;74;21046;-65
2021/08/06 02:40:37;;;;;;;22.27;14.23;;;;;;;21.15;75.75;100378.12;1928536;74;21042;-64
2021/08/06 02:43:06;;;;;;;16.20;11.73;;;;;;;21.20;75.56;100378.56;1917424;74;21109;-64
2021/08/06 02:45:34;;;;;;;22.37;12.03;;;;;;;21.26;75.34;100377.67;1915625;75;21097;-64
2021/08/06 02:48:03;;;;;;;19.50;11.18;;;;;;;21.30;75.24;100383.09;1915697;75;21011;-64
2021/08/06 02:50:34;;;;;;;22.42;11.10;;;;;;;21.38;74.96;100383.27;1915273;74;21095;-64
2021/08/06 02:53:03;;;;;;;16.57;11.15;;;;;;;21.46;74.81;100382.09;1915572;75;21571;-65
2021/08/06 02:55:32;;;;;;;24.00;12.03;;;;;;;21.54;74.78;100386.28;1915659;74;21062;-64
2021/08/06 02:58:02;;;;;;;16.40;10.03;;;;;;;21.59;74.77;100389.87;1915740;75;21594;-64
2021/08/06 03:00:31;;;;;;;16.97;10.95;;;;;;;21.64;74.70;100385.44;1915733;75;21484;-64
2021/08/06 03:03:00;;;;;;;20.02;10.55;;;;;;;21.71;74.58;100382.06;1915592;75;21101;-64
2021/08/06 03:05:29;;;;;;;17.05;11.00;;;;;;;21.81;74.40;100380.70;1915622;75;21211;-65
2021/08/06 03:07:58;;;;;;;17.15;11.57;;;;;;;21.94;74.13;100376.40;1915621;75;21058;-64
2021/08/06 03:10:27;;;;;;;15.85;10.28;;;;;;;22.06;73.98;100379.76;1915608;75;21426;-64
2021/08/06 03:12:56;;;;;;;21.95;10.82;;;;;;;22.14;73.91;100378.56;1915694;75;21035;-64
2021/08/06 03:15:25;;;;;;;15.78;11.00;;;;;;;22.25;73.91;100381.59;1915672;75;21101;-64
2021/08/06 03:17:54;;;;;;;19.30;10.03;;;;;;;22.36;73.92;100375.58;1915517;75;21055;-65
2021/08/06 03:20:25;;;;;;;18.15;10.00;;;;;;;22.52;73.91;100370.09;1915730;74;21054;-64
2021/08/06 03:22:56;;;;;;;28.15;13.78;;;;;;;22.64;73.78;100366.23;1915322;74;21098;-64
2021/08/06 03:25:25;;;;;;;21.77;13.15;;;;;;;22.79;73.64;100366.59;1915705;75;21078;-64
2021/08/06 03:27:56;;;;;;;22.35;12.13;;;;;;;22.99;73.54;100372.72;1915603;74;21105;-65
2021/08/06 03:30:27;;;;;;;22.73;11.40;;;;;;;23.20;73.30;100372.98;1915245;74;21098;-64
2021/08/06 03:32:56;;;;;;;17.27;9.75;;;;;;;23.39;73.02;100368.84;1915639;75;21066;-64
2021/08/06 03:35:27;;;;;;;14.63;8.83;;;;;;;23.64;72.76;100369.07;1915423;74;21098;-64
2021/08/06 03:37:56;;;;;;;14.40;9.18;;;;;;;23.87;72.65;100366.30;1915600;75;21551;-64
2021/08/06 03:40:25;;;;;;;17.87;9.55;;;;;;;24.10;72.30;100359.06;1915651;75;21098;-64
2021/08/06 03:42:54;;;;;;;20.27;9.35;;;;;;;24.35;71.98;100363.28;1915386;74;21082;-65
2021/08/06 03:45:23;;;;;;;15.60;8.88;;;;;;;24.56;71.67;100362.92;1915712;74;21509;-64
2021/08/06 03:47:54;;;;;;;18.45;9.33;;;;;;;24.76;71.26;100366.22;1915682;75;21063;-64
2021/08/06 03:50:22;;;;;;;14.98;9.20;;;;;;;24.94;70.90;100371.02;1915669;74;21566;-65
2021/08/06 03:52:52;;;;;;;18.42;8.85;;;;;;;25.17;70.57;100370.41;1915690;74;21053;-64
2021/08/06 03:55:20;;;;;;;13.45;9.10;;;;;;;25.36;70.07;100367.47;1915533;74;21051;-66
2021/08/06 03:57:50;;;;;;;16.60;9.23;;;;;;;25.59;69.62;100366.82;1915588;75;21011;-64
2021/08/06 04:00:20;;;;;;;17.73;9.75;;;;;;;25.81;69.15;100368.02;1915785;74;21039;-64
2021/08/06 04:02:49;;;;;;;18.02;10.18;;;;;;;26.04;68.86;100368.20;1915687;75;21567;-65
2021/08/06 04:05:19;;;;;;;15.80;10.30;;;;;;;26.30;68.46;100374.77;1915573;74;21042;-65
2021/08/06 04:07:49;;;;;;;19.67;10.00;;;;;;;26.51;67.81;100374.20;1915628;75;21489;-66
2021/08/06 04:10:21;;;;;;;16.17;9.70;;;;;;;26.71;67.01;100368.45;1915672;75;21176;-65
2021/08/06 04:12:51;;;;;;;14.38;9.70;;;;;;;26.90;66.32;100369.88;1915578;74;21062;-65
2021/08/06 04:15:20;;;;;;;16.12;10.18;;;;;;;27.06;65.64;100370.33;1915689;74;21041;-65
2021/08/06 04:17:49;;;;;;;16.95;10.28;;;;;;;27.19;65.05;100367.02;1915581;74;21054;-65
2021/08/06 04:20:18;;;;;;;15.50;10.65;;;;;;;27.31;64.62;100369.17;1915561;75;21067;-66
2021/08/06 04:22:47;;;;;;;16.75;10.25;;;;;;;27.50;64.21;100362.97;1915510;74;21074;-66
2021/08/06 04:25:17;;;;;;;14.98;9.70;;;;;;;27.66;63.86;100362.86;1915638;75;21128;-66
2021/08/06 04:27:46;;;;;;;13.08;9.15;;;;;;;27.81;63.39;100368.84;1915676;75;21516;-66
2021/08/06 04:30:15;;;;;;;11.12;8.40;;;;;;;27.96;63.16;100365.72;1915591;75;21030;-64
2021/08/06 04:32:44;;;;;;;14.23;9.18;;;;;;;28.10;62.78;100358.12;1915599;75;21480;-64
2021/08/06 04:35:13;;;;;;;17.75;9.75;;;;;;;28.25;62.57;100354.59;1915650;75;21423;-65
2021/08/06 04:37:53;;;;;;;18.12;9.53;;;;;;;28.46;62.16;100362.01;1915651;75;21132;-65
2021/08/06 04:40:24;;;;;;;11.70;9.53;;;;;;;28.71;61.71;100361.75;1915127;74;21091;-65
2021/08/06 04:42:53;;;;;;;19.30;10.03;;;;;;;28.95;61.18;100360.59;1915687;74;21508;-65
2021/08/06 04:45:22;;;;;;;14.80;9.40;;;;;;;29.17;60.46;100363.70;1915564;75;21563;-66
2021/08/06 04:47:55;;;;;;;19.45;8.75;;;;;;;29.48;59.96;100363.11;1915558;75;21109;-65
2021/08/06 04:50:24;;;;;;;;;;;;;;;29.65;59.06;100365.35;1918427;74;21559;-65
2021/08/06 04:52:54;;;;;;;16.97;9.30;;;;;;;29.91;58.61;100357.69;1915124;74;20405;-65
2021/08/06 04:55:24;;;;;;;14.07;9.23;;;;;;;30.01;57.95;100357.67;1915689;75;21148;-65
2021/08/06 04:57:53;;;;;;;12.07;8.88;;;;;;;30.18;57.28;100353.31;1915504;74;21430;-65
2021/08/06 05:00:22;;;;;;;15.08;9.35;;;;;;;30.28;56.72;100359.73;1915690;74;21019;-65
2021/08/06 05:02:51;;;;;;;13.00;8.95;;;;;;;30.39;56.23;100351.90;1915713;75;21386;-65
2021/08/06 05:05:20;;;;;;;15.25;9.00;;;;;;;30.44;56.08;100352.67;1915548;75;21124;-65
2021/08/06 05:07:53;;;;;;;17.37;9.40;;;;;;;30.66;55.89;100355.31;1915535;75;21509;-64
2021/08/06 05:10:25;;;;;;;13.98;8.88;;;;;;;30.83;55.39;100351.20;1915516;74;21117;-65
2021/08/06 05:12:55;;;;;;;12.53;9.23;;;;;;;31.05;55.17;100356.02;1915646;75;21137;-65
2021/08/06 05:15:24;;;;;;;12.28;9.03;;;;;;;31.33;54.29;100346.89;1915581;74;21466;-64
2021/08/06 05:17:53;;;;;;;12.18;8.53;;;;;;;31.45;53.85;100346.62;1915595;75;21046;-65
2021/08/06 05:20:22;;;;;;;13.53;8.38;;;;;;;31.68;53.69;100349.49;1915683;74;21145;-64
2021/08/06 05:22:51;;;;;;;19.65;9.25;;;;;;;31.82;53.26;100347.09;1915734;75;21478;-65
2021/08/06 05:25:21;;;;;;;14.45;9.00;;;;;;;31.99;53.32;100342.59;1915781;75;21555;-65
2021/08/06 05:27:50;;;;;;;11.68;9.20;;;;;;;32.25;52.84;100342.58;1915685;74;21092;-65
2021/08/06 05:30:22;;;;;;;14.15;9.60;;;;;;;32.51;52.43;100343.57;1915753;74;21062;-64
2021/08/06 05:32:51;;;;;;;15.90;9.05;;;;;;;32.70;52.09;100334.53;1915831;75;21501;-64
2021/08/06 05:35:21;;;;;;;13.03;9.13;;;;;;;32.92;51.28;100328.77;1915658;75;21481;-67
2021/08/06 05:37:50;;;;;;;14.98;9.23;;;;;;;32.89;50.61;100326.48;1915740;75;21561;-65
2021/08/06 05:40:19;;;;;;;11.22;9.55;;;;;;;32.89;50.65;100329.22;1915716;75;21116;-64
2021/08/06 05:42:48;;;;;;;14.47;10.10;;;;;;;32.89;50.16;100330.58;1915731;75;21465;-65
2021/08/06 05:45:18;;;;;;;12.13;9.10;;;;;;;32.89;50.02;100326.48;1915679;75;21184;-65
2021/08/06 05:47:52;;;;;;;13.35;9.65;;;;;;;32.91;50.04;100335.28;1915649;74;21560;-65
2021/08/06 05:50:25;;;;;;;15.35;9.45;;;;;;;33.09;49.20;100332.67;1915432;74;21086;-65
2021/08/06 05:52:54;;;;;;;14.68;9.33;;;;;;;33.18;49.28;100335.16;1916096;75;21047;-64
2021/08/06 05:55:23;;;;;;;15.63;10.08;;;;;;;33.23;48.95;100325.80;1915693;74;21546;-64
2021/08/06 05:57:53;;;;;;;12.07;9.05;;;;;;;33.37;48.47;100321.94;1914712;74;21177;-64
2021/08/06 06:00:22;;;;;;;14.85;9.65;;;;;;;33.50;48.53;100322.91;1915604;74;21070;-65
2021/08/06 06:02:53;;;;;;;13.80;8.50;;;;;;;33.67;47.97;100315.86;1915094;74;21094;-65
2021/08/06 06:05:35;;;;;;;13.48;8.33;;;;;;;33.79;47.53;100315.45;1893217;75;21061;-64
2021/08/06 06:08:05;;;;;;;10.70;8.20;;;;;;;33.96;47.24;100317.09;1915619;75;21136;-64
2021/08/06 06:10:34;;;;;;;13.15;9.03;;;;;;;34.11;47.18;100310.44;1915656;75;21035;-65
2021/08/06 06:13:03;;;;;;;12.60;8.60;;;;;;;34.27;47.13;100308.52;1915566;74;21058;-65
2021/08/06 06:15:33;;;;;;;12.55;7.97;;;;;;;34.27;47.13;100308.52;1915739;74;21031;-65
2021/08/06 06:18:03;;;;;;;13.58;9.18;;;;;;;34.67;46.45;100305.83;1915823;75;21059;-64
2021/08/06 06:20:32;;;;;;;11.12;8.45;;;;;;;34.94;45.97;100299.52;1915662;75;21513;-65
2021/08/06 06:23:01;;;;;;;9.73;7.92;;;;;;;35.22;45.72;100305.77;1915634;75;21062;-64
2021/08/06 06:25:30;;;;;;;12.30;8.45;;;;;;;35.55;45.29;100297.03;1915556;75;21128;-66
2021/08/06 06:28:04;;;;;;;11.50;8.28;;;;;;;35.86;44.42;100295.07;1915647;75;21476;-65
2021/08/06 06:30:37;;;;;;;11.85;8.00;;;;;;;35.92;43.53;100290.00;1915033;74;21138;-65
2021/08/06 06:33:07;;;;;;;9.73;8.10;;;;;;;36.07;43.26;100276.36;1915698;75;21067;-64
2021/08/06 06:35:36;;;;;;;11.20;7.75;;;;;;;36.27;43.03;100281.48;1915655;75;21453;-64
2021/08/06 06:38:05;;;;;;;12.82;8.53;;;;;;;36.43;42.70;100281.26;1915632;75;21555;-65
2021/08/06 06:40:34;;;;;;;11.35;7.90;;;;;;;36.69;42.36;100273.06;1915718;75;21054;-65
2021/08/06 06:43:05;;;;;;;11.10;7.20;;;;;;;37.04;41.83;100269.33;1915118;74;21157;-65
2021/08/06 06:45:34;;;;;;;14.23;7.97;;;;;;;37.15;40.76;100276.69;1917883;74;21528;-64
2021/08/06 06:48:03;;;;;;;13.32;8.05;;;;;;;37.24;40.49;100271.61;1919240;75;21035;-64
2021/08/06 06:50:32;;;;;;;10.60;7.37;;;;;;;37.24;39.90;100258.73;1919046;74;21030;-65
2021/08/06 06:53:02;;;;;;;10.20;7.40;;;;;;;37.47;40.20;100263.77;1919227;75;21047;-65
2021/08/06 06:55:31;;;;;;;9.60;6.92;;;;;;;37.77;39.08;100262.06;1919138;75;21489;-64
2021/08/06 06:58:00;;;;;;;13.72;6.62;;;;;;;38.00;38.61;100272.02;1919113;74;21469;-64
2021/08/06 07:00:32;;;;;;;9.75;7.05;;;;;;;38.24;38.19;100260.83;1919272;75;21030;-64
2021/08/06 07:03:01;;;;;;;8.50;6.95;;;;;;;38.55;37.56;100263.97;1919227;75;21026;-65
2021/08/06 07:05:31;;;;;;;12.43;7.33;;;;;;;38.71;36.66;100272.68;1919088;75;21517;-65
2021/08/06 07:08:02;;;;;;;10.63;7.50;;;;;;;38.70;36.63;100269.66;1919248;74;21093;-64
2021/08/06 07:10:31;;;;;;;11.45;6.78;;;;;;;38.81;35.97;100260.42;1919180;75;20987;-64
2021/08/06 07:13:00;;;;;;;11.22;6.95;;;;;;;38.67;35.02;100268.79;1919234;75;21058;-64
2021/08/06 07:15:29;;;;;;;15.80;8.15;;;;;;;38.68;35.16;100270.98;1919177;75;21051;-65
2021/08/06 07:17:58;;;;;;;12.88;7.15;;;;;;;38.84;35.54;100269.25;1919341;75;21078;-64
2021/08/06 07:20:28;;;;;;;12.05;6.67;;;;;;;38.94;35.73;100267.44;1918952;74;21166;-65
2021/08/06 07:22:57;;;;;;;9.90;6.58;;;;;;;39.26;35.57;100269.95;1919232;75;21490;-64
2021/08/06 07:25:26;;;;;;;9.15;6.12;;;;;;;39.52;35.15;100261.37;1919091;75;21094;-64
2021/08/06 07:27:55;;;;;;;10.25;6.60;;;;;;;39.70;34.95;100260.95;1919182;74;21034;-65
2021/08/06 07:30:25;;;;;;;13.13;7.10;;;;;;;39.65;34.87;100268.36;1919324;75;21147;-65
2021/08/06 07:32:54;;;;;;;10.30;7.28;;;;;;;39.34;34.71;100266.70;1919219;75;21026;-65
2021/08/06 07:35:25;;;;;;;9.98;6.05;;;;;;;39.26;34.88;100271.34;1919140;75;21136;-65
2021/08/06 07:37:54;;;;;;;12.63;6.87;;;;;;;39.51;34.69;100261.08;1919155;75;21116;-64
2021/08/06 07:40:23;;;;;;;13.35;7.15;;;;;;;39.87;33.95;100258.58;1919159;74;21026;-66
2021/08/06 07:42:54;;;;;;;9.15;6.95;;;;;;;40.23;33.67;100257.41;1919031;74;21670;-65
2021/08/06 07:45:25;;;;;;;10.88;6.55;;;;;;;40.49;33.13;100252.31;1921840;74;21065;-65
2021/08/06 07:47:54;;;;;;;9.70;6.55;;;;;;;40.46;32.37;100254.22;1928485;74;21046;-65
2021/08/06 07:50:23;;;;;;;12.95;6.45;;;;;;;40.48;32.77;100247.05;1928389;74;21085;-65
2021/08/06 07:52:52;;;;;;;13.13;6.85;;;;;;;40.64;32.06;100244.63;1928449;74;21073;-64
2021/08/06 07:55:21;;;;;;;11.28;6.55;;;;;;;40.76;31.94;100246.30;1928310;74;21603;-65
2021/08/06 07:57:50;;;;;;;8.10;6.78;;;;;;;40.90;31.84;100238.62;1923259;74;21067;-63
2021/08/06 08:00:20;;;;;;;12.95;6.58;;;;;;;41.22;31.02;100238.12;1916864;74;21067;-63
2021/08/06 08:02:50;;;;;;;8.83;5.75;;;;;;;41.22;30.90;100233.97;1916976;74;21546;-63
2021/08/06 08:05:23;;;;;;;9.05;6.00;;;;;;;41.47;30.36;100235.91;1916299;75;21099;-63
2021/08/06 08:07:54;;;;;;;8.98;5.78;;;;;;;41.16;29.46;100235.88;1916200;75;21509;-63
2021/08/06 08:10:23;;;;;;;11.93;6.95;;;;;;;41.31;29.67;100229.55;1917037;75;21048;-63
2021/08/06 08:12:52;;;;;;;11.45;6.08;;;;;;;41.53;29.40;100236.16;1916843;75;21051;-63
2021/08/06 08:15:21;;;;;;;8.18;5.53;;;;;;;41.66;29.79;100234.78;1916858;75;21060;-63
2021/08/06 08:17:50;;;;;;;11.53;6.40;;;;;;;41.29;29.78;100231.77;1916977;75;21028;-63
2021/08/06 08:20:19;;;;;;;9.98;6.00;;;;;;;40.89;29.93;100223.71;1916871;74;21071;-63
2021/08/06 08:22:48;;;;;;;11.55;6.08;;;;;;;40.80;30.38;100217.08;1917013;75;21087;-63
2021/08/06 08:25:17;;;;;;;9.00;6.40;;;;;;;41.04;30.57;100220.98;1916996;75;21118;-63
2021/08/06 08:27:46;;;;;;;11.63;6.75;;;;;;;40.88;30.85;100217.93;1916945;75;21573;-63
2021/08/06 08:30:16;;;;;;;10.13;6.87;;;;;;;40.44;31.44;100221.95;1916832;75;21133;-63
2021/08/06 08:32:45;;;;;;;11.57;6.45;;;;;;;39.61;31.78;100224.53;1916680;75;21052;-64
2021/08/06 08:35:15;;;;;;;9.10;6.83;;;;;;;38.84;33.02;100219.72;1917016;75;21438;-63
2021/08/06 08:37:44;;;;;;;9.95;6.87;;;;;;;38.03;34.72;100220.69;1916920;75;21470;-63
2021/08/06 08:40:14;;;;;;;11.38;7.55;;;;;;;37.53;35.54;100210.58;1916785;75;21490;-63
2021/08/06 08:42:44;;;;;;;12.10;6.90;;;;;;;37.05;36.49;100207.87;1916949;75;21036;-63
2021/08/06 08:45:14;;;;;;;11.68;7.55;;;;;;;37.15;36.94;100208.59;1916654;75;21478;-63
2021/08/06 08:47:45;;;;;;;10.93;7.75;;;;;;;37.40;37.96;100207.64;1925768;74;21043;-63
2021/08/06 08:50:15;;;;;;;15.45;8.10;;;;;;;36.93;39.62;100207.09;1926624;74;21011;-63
2021/08/06 08:52:44;;;;;;;15.28;8.15;;;;;;;36.42;40.46;100218.75;1926467;74;21166;-64
2021/08/06 08:55:14;;;;;;;13.70;8.28;;;;;;;35.88;41.33;100209.38;1926508;74;21583;-63
2021/08/06 08:57:45;;;;;;;13.18;8.38;;;;;;;35.36;42.72;100207.34;1926180;74;21070;-65
2021/08/06 09:00:16;;;;;;;13.45;6.85;;;;;;;35.07;43.31;100208.22;1926542;74;21044;-63
2021/08/06 09:02:46;;;;;;;15.28;8.03;;;;;;;35.04;43.10;100204.03;1926536;74;21525;-63
2021/08/06 09:05:23;;;;;;;12.55;7.78;;;;;;;34.84;43.78;100193.40;1926508;74;21482;-63
2021/08/06 09:07:54;;;;;;;11.30;8.15;;;;;;;34.84;43.78;100193.40;1925989;74;21135;-63
2021/08/06 09:10:39;;;;;;;12.00;8.28;;;;;;;34.70;44.92;100205.08;1925695;74;21040;-63
2021/08/06 09:13:16;;;;;;;10.48;7.80;;;;;;;34.57;44.85;100189.66;1926478;74;21067;-63
2021/08/06 09:15:50;;;;;;;9.45;7.25;;;;;;;34.57;44.85;100189.66;1926232;74;21071;-63
2021/08/06 09:18:25;;;;;;;;;;;;;;;34.63;44.81;100187.08;1929405;74;21063;-63
2021/08/06 09:21:00;;;;;;;12.70;7.75;;;;;;;35.49;43.52;100183.55;1926638;74;20185;-63
2021/08/06 09:23:50;;;;;;;8.63;7.12;;;;;;;35.49;43.52;100183.55;1926643;74;21474;-63
2021/08/06 09:26:44;;;;;;;9.28;6.83;;;;;;;35.86;42.49;100184.69;1926509;74;21483;-64
2021/08/06 09:29:24;;;;;;;10.30;7.12;;;;;;;36.59;41.33;100179.59;1926498;74;21115;-63
2021/08/06 09:31:56;;;;;;;10.45;6.58;;;;;;;36.68;40.50;100186.37;1926520;74;21137;-63
2021/08/06 09:34:31;;;;;;;9.58;6.42;;;;;;;36.37;40.84;100182.18;1926658;74;21055;-63
2021/08/06 09:37:15;;;;;;;9.90;6.55;;;;;;;36.46;41.09;100181.53;1926524;74;21083;-63
2021/08/06 09:39:51;;;;;;;11.78;6.53;;;;;;;36.51;40.63;100175.34;1925150;74;21039;-63
2021/08/06 09:42:22;;;;;;;12.13;6.42;;;;;;;36.38;40.69;100175.09;1925710;74;21573;-63
2021/08/06 09:45:02;;;;;;;6.75;6.05;;;;;;;36.45;40.38;100177.70;1926602;74;21031;-63
2021/08/06 09:47:33;;;;;;;7.87;6.05;;;;;;;36.66;39.99;100178.90;1926312;74;21538;-63
2021/08/06 09:50:04;;;;;;;11.48;6.30;;;;;;;36.48;39.91;100178.04;1926559;74;21133;-63
2021/08/06 09:52:38;;;;;;;7.70;6.43;;;;;;;36.93;39.49;100171.43;1926777;74;21474;-63
2021/08/06 09:55:08;;;;;;;9.85;6.85;;;;;;;37.15;38.56;100164.17;1926621;74;21098;-63
2021/08/06 09:57:45;;;;;;;10.38;6.60;;;;;;;37.04;38.33;100165.88;1926517;74;21063;-63
2021/08/06 10:00:18;;;;;;;9.58;7.20;;;;;;;37.42;38.10;100168.95;1926413;74;21023;-63
2021/08/06 10:02:46;;;;;;;10.60;6.50;;;;;;;38.13;37.72;100165.59;1926609;74;21106;-63
2021/08/06 10:05:18;;;;;;;13.03;7.05;;;;;;;38.58;36.44;100164.44;1926496;74;21071;-63
2021/08/06 10:07:49;;;;;;;11.20;7.45;;;;;;;38.83;35.73;100161.11;1926862;74;21048;-63
2021/08/06 10:10:21;;;;;;;10.55;6.58;;;;;;;39.15;35.67;100154.23;1926651;74;21044;-63
2021/08/06 10:43:22;;;;;;;8.65;5.70;;;;;;;39.46;33.46;100123.36;1978461;72;28464;-61
2021/08/06 10:45:54;;;;;;;8.05;6.25;;;;;;;39.39;33.82;100120.24;1953678;73;21070;-62
2021/08/06 10:48:31;;;;;;;6.55;5.90;;;;;;;39.36;33.84;100120.80;1953741;73;21027;-62
2021/08/06 10:51:21;;;;;;;10.65;5.70;;;;;;;39.28;33.83;100114.95;1953617;73;21085;-62
2021/08/06 10:53:58;;;;;;;10.15;6.10;;;;;;;39.06;34.44;100113.15;1953674;73;21563;-62
2021/08/06 10:56:33;;;;;;;7.60;5.60;;;;;;;39.03;33.97;100117.83;1950730;73;21457;-62
2021/08/06 10:59:15;;;;;;;8.98;6.00;;;;;;;38.83;34.08;100112.11;1953582;73;21078;-62
2021/08/06 11:01:39;;;;;;;9.53;5.80;;;;;;;38.61;34.34;100108.92;1949000;73;21105;-62
2021/08/06 11:04:09;;;;;;;;;;;;;;;38.34;34.87;100109.72;1956576;73;21039;-62
2021/08/06 11:06:47;;;;;;;7.72;5.45;;;;;;;38.12;35.15;100103.45;1948372;73;20144;-62
2021/08/06 11:09:29;;;;;;;7.22;5.65;;;;;;;37.89;35.17;100098.49;1952742;73;21509;-62
2021/08/06 11:12:14;;;;;;;10.03;6.42;;;;;;;37.84;35.42;100091.56;1953622;73;21059;-62
2021/08/06 11:14:46;;;;;;;10.60;5.78;;;;;;;37.77;35.48;100089.55;1952123;73;21075;-62
2021/08/06 11:17:17;;;;;;;9.60;6.00;;;;;;;37.66;35.71;100081.20;1953647;73;21052;-62
2021/08/06 11:19:49;;;;;;;9.23;6.10;;;;;;;37.48;35.89;100080.11;1953490;73;21059;-62
2021/08/06 11:22:29;;;;;;;9.95;6.05;;;;;;;37.43;35.86;100078.11;1953780;73;21473;-62
2021/08/06 11:25:03;;;;;;;9.68;6.20;;;;;;;37.40;35.64;100079.16;1953719;73;21466;-62
2021/08/06 11:27:40;;;;;;;7.95;5.90;;;;;;;37.25;36.34;100066.88;1953659;73;21007;-62
2021/08/06 11:30:19;;;;;;;14.18;6.37;;;;;;;37.39;36.73;100068.73;1953734;73;21164;-62
2021/08/06 11:32:56;;;;;;;13.05;6.47;;;;;;;37.44;35.87;100067.95;1953624;73;21031;-62
2021/08/06 11:35:28;;;;;;;14.10;6.40;;;;;;;37.21;36.15;100070.39;1935237;73;21011;-61
2021/08/06 11:38:02;;;;;;;11.18;6.50;;;;;;;37.21;36.46;100068.47;1952427;73;21055;-62
2021/08/06 11:40:36;;;;;;;10.88;7.30;;;;;;;37.38;36.47;100069.80;1953530;73;21129;-62
2021/08/06 11:43:14;;;;;;;10.65;6.50;;;;;;;37.43;36.85;100066.30;1953276;73;21587;-62
2021/08/06 11:45:45;;;;;;;16.27;7.50;;;;;;;37.43;36.44;100067.13;1947735;73;21108;-62
2021/08/06 11:48:14;;;;;;;12.85;7.25;;;;;;;37.27;36.70;100057.84;1953122;73;21177;-62
2021/08/06 11:50:46;;;;;;;9.73;6.28;;;;;;;37.23;36.55;100059.44;1952992;73;21031;-62
2021/08/06 11:53:17;;;;;;;11.15;7.40;;;;;;;37.09;36.67;100053.98;1953086;73;21293;-62
2021/08/06 11:55:48;;;;;;;11.10;6.87;;;;;;;36.78;36.97;100053.54;1953240;73;21093;-62
2021/08/06 11:58:37;;;;;;;9.80;7.12;;;;;;;36.60;37.33;100048.27;1953100;73;21015;-62
2021/08/06 12:01:08;;;;;;;10.10;7.33;;;;;;;36.56;37.42;100040.23;1952982;73;21029;-62
2021/08/06 12:03:51;;;;;;;7.75;5.75;;;;;;;36.46;38.03;100036.23;1952898;73;21114;-62
2021/08/06 12:06:21;;;;;;;11.22;7.12;;;;;;;36.36;37.90;100038.83;1953078;73;21074;-62